Time;durP1;ratioP1;P1;durP2;ratioP2;P2;SDS_P1;SDS_P2;PMS_P1;PMS_P2;Temp;Humidity;BMP_temperature;BMP_pressure;BME280_temperature;BME280_humidity;BME280_pressure;Samples;Min_cycle;Max_cycle;Signal;HPM_P1;HPM_P2
2021/09/15 00:00:12;;;;;;;8.10;7.50;;;23.70;43.60;;;;;;4934512;29;20208;-57
2021/09/15 00:02:37;;;;;;;7.93;7.43;;;23.70;43.60;;;;;;4934550;29;20662;-54
2021/09/15 00:05:04;;;;;;;7.73;7.03;;;23.70;43.60;;;;;;4934706;29;20207;-56
2021/09/15 00:07:30;;;;;;;7.63;7.03;;;23.70;43.60;;;;;;4934698;29;20627;-54
2021/09/15 00:09:55;;;;;;;8.93;8.27;;;23.70;43.60;;;;;;4934501;29;20439;-56
2021/09/15 00:12:21;;;;;;;8.10;7.50;;;23.70;43.60;;;;;;4934510;29;20196;-54
2021/09/15 00:14:46;;;;;;;7.70;7.00;;;23.70;43.60;;;;;;4934693;29;20188;-54
2021/09/15 00:17:12;;;;;;;8.67;7.90;;;23.70;43.60;;;;;;4934536;29;20190;-54
2021/09/15 00:19:37;;;;;;;8.37;7.73;;;23.70;43.60;;;;;;4934498;29;20183;-55
2021/09/15 00:22:03;;;;;;;8.17;7.43;;;23.70;43.60;;;;;;4934447;29;20583;-56
2021/09/15 00:24:28;;;;;;;6.87;6.37;;;23.70;43.60;;;;;;4934696;29;20735;-55
2021/09/15 00:26:54;;;;;;;7.70;7.10;;;23.70;43.60;;;;;;4934413;29;20262;-57
2021/09/15 00:29:19;;;;;;;7.00;6.60;;;23.70;43.60;;;;;;4934415;29;20182;-58
2021/09/15 00:31:45;;;;;;;7.67;6.97;;;23.70;43.60;;;;;;4934336;29;20655;-54
2021/09/15 00:34:10;;;;;;;7.00;6.50;;;23.70;43.60;;;;;;4934474;29;20191;-56
2021/09/15 00:36:36;;;;;;;9.10;7.10;;;23.70;43.60;;;;;;4934401;29;20624;-55
2021/09/15 00:39:01;;;;;;;7.70;7.20;;;23.70;43.60;;;;;;4934217;29;20655;-56
2021/09/15 00:41:27;;;;;;;7.67;7.10;;;23.70;43.60;;;;;;4934251;29;20218;-54
2021/09/15 00:43:57;;;;;;;7.63;7.10;;;23.70;43.60;;;;;;4934637;29;20238;-57
2021/09/15 00:46:23;;;;;;;7.90;7.23;;;23.70;43.60;;;;;;4934311;29;20306;-54
2021/09/15 00:48:49;;;;;;;8.07;7.47;;;23.70;43.60;;;;;;4934551;29;20962;-56
2021/09/15 00:51:15;;;;;;;7.73;6.97;;;23.70;43.60;;;;;;4934262;29;20801;-56
2021/09/15 00:53:41;;;;;;;7.30;6.80;;;23.70;43.60;;;;;;4934272;29;20521;-56
2021/09/15 00:56:06;;;;;;;7.27;6.67;;;23.60;43.70;;;;;;4934251;29;20591;-51
2021/09/15 00:58:33;;;;;;;7.93;7.23;;;23.70;43.90;;;;;;4933990;29;20758;-55
2021/09/15 01:00:58;;;;;;;6.70;6.20;;;23.70;44.00;;;;;;4934569;29;20302;-53
2021/09/15 01:03:25;;;;;;;6.87;6.37;;;23.60;43.90;;;;;;4937605;29;20526;-56
2021/09/15 01:05:50;;;;;;;6.90;6.50;;;23.60;43.90;;;;;;4937743;29;20299;-53
2021/09/15 01:08:16;;;;;;;7.80;7.20;;;23.60;43.80;;;;;;4937649;29;20503;-56
2021/09/15 01:10:42;;;;;;;6.27;5.87;;;23.60;43.80;;;;;;4937436;29;20168;-55
2021/09/15 01:13:08;;;;;;;7.73;7.13;;;23.60;43.80;;;;;;4937549;29;20423;-55
2021/09/15 01:15:34;;;;;;;7.43;6.87;;;23.60;43.80;;;;;;4937544;29;20207;-53
2021/09/15 01:18:11;;;;;;;6.57;6.07;;;23.60;43.80;;;;;;4937668;29;21118;-51
2021/09/15 01:20:37;;;;;;;7.07;6.57;;;23.60;43.90;;;;;;4937417;29;20220;-57
2021/09/15 01:23:03;;;;;;;6.73;6.33;;;23.60;43.90;;;;;;4937347;29;20458;-54
2021/09/15 01:25:28;;;;;;;6.73;6.23;;;23.60;43.90;;;;;;4937331;29;20826;-54
2021/09/15 01:27:54;;;;;;;7.00;6.50;;;23.60;43.90;;;;;;4937285;29;20185;-54
2021/09/15 01:30:19;;;;;;;7.00;6.40;;;23.60;44.00;;;;;;4937058;29;20203;-55
2021/09/15 01:32:45;;;;;;;7.37;6.87;;;23.60;44.00;;;;;;4937145;29;20228;-57
2021/09/15 01:35:10;;;;;;;7.10;6.60;;;23.60;44.10;;;;;;4937389;29;20271;-55
2021/09/15 01:37:36;;;;;;;6.57;6.17;;;23.60;44.10;;;;;;4937117;29;20177;-57
2021/09/15 01:40:03;;;;;;;7.10;6.50;;;23.60;44.00;;;;;;4936967;29;20188;-57
2021/09/15 01:42:28;;;;;;;7.60;7.10;;;23.60;44.10;;;;;;4936974;29;20203;-56
2021/09/15 01:44:54;;;;;;;6.53;6.03;;;23.60;44.10;;;;;;4936916;29;20523;-57
2021/09/15 01:47:19;;;;;;;7.43;6.83;;;23.60;44.00;;;;;;4936856;29;20706;-56
2021/09/15 01:49:46;;;;;;;7.27;6.77;;;23.60;44.00;;;;;;4936754;29;20168;-55
2021/09/15 01:52:14;;;;;;;6.53;6.03;;;23.60;44.00;;;;;;4936855;29;20196;-56
2021/09/15 01:54:40;;;;;;;6.60;6.20;;;23.60;44.00;;;;;;4936764;29;20423;-56
2021/09/15 01:57:06;;;;;;;7.57;6.83;;;23.60;44.00;;;;;;4936827;29;20766;-54
2021/09/15 01:59:32;;;;;;;7.40;6.90;;;23.60;44.00;;;;;;4936484;29;20412;-56
2021/09/15 02:01:57;;;;;;;6.83;6.33;;;23.60;44.10;;;;;;4936603;29;20455;-52
2021/09/15 02:04:23;;;;;;;7.23;6.63;;;23.60;44.00;;;;;;4936573;29;20208;-54
2021/09/15 02:06:49;;;;;;;7.47;6.73;;;23.60;44.10;;;;;;4936704;29;20743;-56
2021/09/15 02:09:14;;;;;;;7.50;6.80;;;23.60;44.10;;;;;;4936200;29;20528;-55
2021/09/15 02:11:40;;;;;;;6.60;6.20;;;23.60;44.20;;;;;;4936036;29;20197;-53
2021/09/15 02:14:06;;;;;;;6.77;6.17;;;23.60;44.10;;;;;;4936447;29;20275;-56
2021/09/15 02:16:33;;;;;;;5.97;5.53;;;23.60;44.10;;;;;;4936582;29;20187;-53
2021/09/15 02:18:59;;;;;;;6.67;6.17;;;23.60;44.10;;;;;;4936372;29;20407;-52
2021/09/15 02:21:24;;;;;;;6.60;6.20;;;23.60;44.10;;;;;;4936407;29;20435;-57
2021/09/15 02:23:50;;;;;;;7.70;7.00;;;23.60;44.20;;;;;;4936313;29;20583;-53
2021/09/15 02:26:16;;;;;;;7.10;6.50;;;23.60;44.20;;;;;;4936268;29;20172;-54
2021/09/15 02:28:42;;;;;;;6.10;5.70;;;23.50;44.00;;;;;;4935974;29;20202;-54
2021/09/15 02:31:07;;;;;;;6.87;6.37;;;23.60;44.20;;;;;;4936038;29;21014;-55
2021/09/15 02:33:33;;;;;;;6.50;6.00;;;23.60;44.10;;;;;;4936079;29;20184;-52
2021/09/15 02:35:59;;;;;;;7.23;6.63;;;23.60;44.10;;;;;;4936233;29;20176;-54
2021/09/15 02:38:25;;;;;;;6.87;6.30;;;23.50;44.00;;;;;;4935852;29;20589;-56
2021/09/15 02:40:51;;;;;;;5.90;5.50;;;23.50;44.00;;;;;;4935961;29;20408;-56
2021/09/15 02:43:17;;;;;;;6.40;5.90;;;23.50;44.00;;;;;;4935745;29;20950;-53
2021/09/15 02:45:42;;;;;;;6.37;5.87;;;23.50;43.90;;;;;;4936011;29;20259;-56
2021/09/15 02:48:08;;;;;;;8.10;7.40;;;23.50;43.80;;;;;;4935852;29;20179;-54
2021/09/15 02:50:33;;;;;;;6.23;5.73;;;23.50;43.60;;;;;;4935637;29;20191;-56
2021/09/15 02:52:59;;;;;;;7.17;6.57;;;23.50;43.50;;;;;;4935783;29;20176;-52
2021/09/15 02:55:25;;;;;;;6.90;6.40;;;23.50;43.40;;;;;;4935704;29;20180;-55
2021/09/15 02:57:51;;;;;;;7.03;6.40;;;23.50;43.40;;;;;;4935617;29;20191;-56
2021/09/15 03:00:17;;;;;;;7.03;6.53;;;23.50;43.40;;;;;;4935194;29;20436;-56
2021/09/15 03:02:43;;;;;;;6.77;6.27;;;23.50;43.40;;;;;;4935768;29;20283;-54
2021/09/15 03:05:09;;;;;;;6.97;6.57;;;23.50;43.40;;;;;;4935466;29;20464;-54
2021/09/15 03:07:34;;;;;;;6.10;5.70;;;23.50;43.40;;;;;;4935353;29;20408;-52
2021/09/15 03:10:00;;;;;;;6.33;5.90;;;23.50;43.40;;;;;;4935276;29;20428;-57
2021/09/15 03:12:25;;;;;;;7.10;6.60;;;23.50;43.40;;;;;;4935378;29;20195;-56
2021/09/15 03:14:51;;;;;;;6.50;6.00;;;23.50;43.40;;;;;;4935389;29;20176;-55
2021/09/15 03:17:16;;;;;;;6.67;6.17;;;23.50;43.40;;;;;;4935487;29;20191;-55
2021/09/15 03:19:42;;;;;;;6.60;6.20;;;23.50;43.40;;;;;;4935003;29;20179;-53
2021/09/15 03:22:07;;;;;;;6.87;6.23;;;23.50;43.40;;;;;;4935212;29;20207;-56
2021/09/15 03:24:33;;;;;;;6.50;6.00;;;23.50;43.40;;;;;;4934431;29;20239;-53
2021/09/15 03:27:03;;;;;;;5.93;5.53;;;23.50;43.40;;;;;;4935168;29;20176;-54
2021/09/15 03:29:28;;;;;;;6.97;6.47;;;23.50;43.40;;;;;;4934989;29;20622;-57
2021/09/15 03:31:54;;;;;;;7.10;6.60;;;23.50;43.40;;;;;;4935114;29;20478;-53
2021/09/15 03:34:19;;;;;;;6.60;6.20;;;23.50;43.40;;;;;;4934936;29;20195;-55
2021/09/15 03:36:45;;;;;;;6.70;6.10;;;23.50;43.40;;;;;;4935036;29;20254;-56
2021/09/15 03:39:10;;;;;;;6.90;6.30;;;23.50;43.40;;;;;;4934688;29;20663;-56
2021/09/15 03:41:36;;;;;;;6.57;6.17;;;23.50;43.40;;;;;;4934897;29;20200;-53
2021/09/15 03:44:01;;;;;;;6.57;6.17;;;23.50;43.40;;;;;;4934680;29;20218;-55
2021/09/15 03:46:27;;;;;;;7.27;6.73;;;23.50;43.40;;;;;;4935050;29;20188;-56
2021/09/15 03:48:53;;;;;;;6.77;6.37;;;23.50;43.40;;;;;;4934702;29;20180;-53
2021/09/15 03:51:19;;;;;;;6.80;6.23;;;23.50;43.40;;;;;;4934636;29;20199;-53
2021/09/15 03:53:44;;;;;;;6.97;6.57;;;23.40;43.30;;;;;;4934901;29;20432;-56
2021/09/15 03:56:10;;;;;;;6.10;5.70;;;23.50;43.40;;;;;;4934582;29;20184;-52
2021/09/15 03:58:35;;;;;;;7.30;6.70;;;23.50;43.40;;;;;;4934489;29;20195;-57
2021/09/15 04:01:01;;;;;;;6.13;5.73;;;23.50;43.40;;;;;;4934498;29;20215;-52
2021/09/15 04:03:26;;;;;;;6.70;6.30;;;23.50;43.40;;;;;;4934667;29;20267;-51
2021/09/15 04:05:51;;;;;;;6.63;6.13;;;23.50;43.40;;;;;;4934609;29;20175;-55
2021/09/15 04:08:17;;;;;;;6.87;6.37;;;23.50;43.40;;;;;;4934699;29;20176;-56
2021/09/15 04:10:43;;;;;;;6.33;5.93;;;23.50;43.40;;;;;;4934205;29;20243;-56
2021/09/15 04:13:08;;;;;;;6.00;5.60;;;23.50;43.40;;;;;;4934162;29;20180;-58
2021/09/15 04:15:34;;;;;;;6.83;6.30;;;23.50;43.40;;;;;;4932952;29;20203;-61
2021/09/15 04:17:59;;;;;;;6.07;5.47;;;23.50;43.40;;;;;;4934582;29;20210;-61
2021/09/15 04:20:25;;;;;;;6.70;6.20;;;23.50;43.40;;;;;;4934282;29;20550;-62
2021/09/15 04:22:50;;;;;;;6.30;5.90;;;23.50;43.40;;;;;;4934425;29;20211;-60
2021/09/15 04:33:28;;;;;;;6.37;5.77;;;23.50;43.40;;;;;;4934420;29;20407;-59
2021/09/15 04:35:54;;;;;;;6.47;6.07;;;23.50;43.40;;;;;;4936283;29;20935;-60
2021/09/15 04:38:19;;;;;;;5.93;5.53;;;23.50;43.40;;;;;;4938046;29;20180;-59
2021/09/15 04:40:45;;;;;;;5.97;5.57;;;23.50;43.40;;;;;;4938034;29;20176;-61
2021/09/15 04:43:11;;;;;;;7.27;6.00;;;23.50;43.40;;;;;;4937881;29;20176;-60
2021/09/15 04:45:37;;;;;;;6.13;5.63;;;23.50;43.40;;;;;;4937908;29;20471;-59
2021/09/15 04:48:04;;;;;;;7.00;6.50;;;23.50;43.40;;;;;;4944337;28;20226;-60
2021/09/15 04:50:29;;;;;;;6.13;5.63;;;23.50;43.60;;;;;;4955475;29;20761;-61
2021/09/15 04:52:55;;;;;;;6.00;5.50;;;23.50;43.60;;;;;;4956923;28;20559;-61
2021/09/15 04:55:20;;;;;;;6.20;5.70;;;23.50;43.70;;;;;;4957356;28;20525;-60
2021/09/15 04:57:46;;;;;;;6.80;6.20;;;23.50;43.60;;;;;;4956998;29;20187;-60
2021/09/15 05:00:12;;;;;;;6.50;6.10;;;23.50;43.70;;;;;;4956677;29;20345;-59
2021/09/15 05:02:37;;;;;;;6.10;5.70;;;23.50;43.90;;;;;;4956623;28;20640;-59
2021/09/15 05:05:03;;;;;;;7.27;6.70;;;23.50;44.00;;;;;;4956324;29;20532;-61
2021/09/15 05:07:28;;;;;;;6.00;5.60;;;23.50;44.10;;;;;;4956506;29;20331;-59
2021/09/15 05:09:54;;;;;;;6.33;5.93;;;23.50;44.00;;;;;;4956772;29;20194;-61
2021/09/15 05:12:20;;;;;;;7.43;6.93;;;23.50;44.00;;;;;;4956669;29;20199;-60
2021/09/15 05:14:45;;;;;;;5.40;5.10;;;23.50;44.00;;;;;;4956484;28;20222;-60
2021/09/15 05:17:10;;;;;;;6.10;5.70;;;23.50;44.10;;;;;;4956569;29;20178;-62
2021/09/15 05:19:36;;;;;;;6.13;5.53;;;23.50;44.00;;;;;;4956166;28;20569;-60
2021/09/15 05:22:02;;;;;;;5.83;5.43;;;23.50;44.00;;;;;;4956691;28;20204;-59
2021/09/15 05:24:28;;;;;;;7.00;6.30;;;23.50;44.10;;;;;;4956125;28;20209;-59
2021/09/15 05:26:53;;;;;;;6.33;5.83;;;23.50;44.10;;;;;;4956500;29;20502;-59
2021/09/15 05:29:19;;;;;;;7.23;6.63;;;23.50;44.10;;;;;;4956009;28;20176;-60
2021/09/15 05:31:44;;;;;;;6.73;6.03;;;23.50;44.20;;;;;;4956739;29;20254;-59
2021/09/15 05:34:10;;;;;;;6.10;5.57;;;23.50;44.20;;;;;;4956101;29;20186;-58
2021/09/15 05:36:35;;;;;;;5.90;5.50;;;23.50;44.20;;;;;;4956369;29;20172;-59
2021/09/15 05:39:01;;;;;;;5.73;5.37;;;23.50;44.30;;;;;;4956070;29;20179;-62
2021/09/15 05:41:26;;;;;;;5.90;5.50;;;23.50;44.30;;;;;;4956017;29;20203;-62
2021/09/15 05:43:52;;;;;;;6.20;5.80;;;23.50;44.20;;;;;;4956096;29;20205;-62
2021/09/15 05:46:17;;;;;;;6.83;6.23;;;23.50;44.30;;;;;;4955889;28;20172;-61
2021/09/15 05:48:43;;;;;;;5.93;5.40;;;23.50;44.30;;;;;;4955377;28;20175;-61
2021/09/15 05:51:08;;;;;;;5.83;5.37;;;23.50;44.40;;;;;;4956072;28;20650;-62
2021/09/15 05:53:34;;;;;;;7.13;6.50;;;23.50;44.40;;;;;;4955969;28;20180;-62
2021/09/15 05:55:59;;;;;;;6.10;5.53;;;23.50;44.50;;;;;;4955780;29;20183;-58
2021/09/15 05:58:25;;;;;;;6.20;5.70;;;23.40;45.00;;;;;;4955686;29;20176;-61
2021/09/15 06:00:50;;;;;;;6.50;6.00;;;23.50;45.70;;;;;;4954361;29;20490;-60
2021/09/15 06:03:16;;;;;;;5.93;5.50;;;23.50;45.80;;;;;;4955608;28;20227;-60
2021/09/15 06:05:42;;;;;;;6.60;6.00;;;23.50;46.20;;;;;;4955637;29;20698;-60
2021/09/15 06:08:07;;;;;;;6.63;6.00;;;23.50;46.30;;;;;;4955858;29;20420;-60
2021/09/15 06:10:33;;;;;;;6.77;6.10;;;23.50;46.30;;;;;;4955447;29;20246;-59
2021/09/15 06:12:58;;;;;;;6.90;6.20;;;23.40;46.40;;;;;;4955547;28;20183;-60
2021/09/15 06:15:24;;;;;;;6.83;6.23;;;23.30;46.80;;;;;;4955540;29;20187;-60
2021/09/15 06:17:50;;;;;;;6.73;6.03;;;23.30;46.90;;;;;;4955160;29;20184;-60
2021/09/15 06:20:15;;;;;;;6.47;5.87;;;23.30;47.30;;;;;;4955423;28;20179;-60
2021/09/15 06:22:41;;;;;;;6.70;6.10;;;23.30;47.40;;;;;;4955292;28;20198;-59
2021/09/15 06:25:07;;;;;;;6.80;5.80;;;23.40;47.60;;;;;;4955299;29;20282;-58
2021/09/15 06:27:35;;;;;;;5.67;5.20;;;23.40;47.70;;;;;;4955284;29;20219;-59
2021/09/15 06:30:00;;;;;;;6.97;6.27;;;23.30;47.70;;;;;;4955143;29;20471;-57
2021/09/15 06:32:26;;;;;;;8.47;5.83;;;23.30;47.90;;;;;;4954800;29;21037;-59
2021/09/15 06:34:52;;;;;;;7.33;6.63;;;23.30;47.90;;;;;;4955243;29;20226;-59
2021/09/15 06:37:18;;;;;;;5.90;5.30;;;23.30;47.90;;;;;;4955208;29;20206;-60
2021/09/15 06:39:44;;;;;;;5.63;5.30;;;23.30;48.00;;;;;;4954971;29;20505;-60
2021/09/15 06:42:10;;;;;;;6.87;6.27;;;23.30;48.00;;;;;;4955161;28;20861;-60
2021/09/15 06:44:35;;;;;;;7.03;6.43;;;23.30;48.30;;;;;;4954810;28;20207;-58
2021/09/15 06:47:01;;;;;;;6.23;5.70;;;23.30;48.20;;;;;;4954897;28;20812;-60
2021/09/15 06:49:26;;;;;;;8.77;6.80;;;23.30;48.10;;;;;;4954453;29;20176;-60
2021/09/15 06:51:52;;;;;;;6.63;6.03;;;23.20;48.20;;;;;;4952742;29;20199;-60
2021/09/15 06:54:17;;;;;;;6.30;5.80;;;23.20;48.50;;;;;;4953765;29;20234;-60
2021/09/15 06:56:45;;;;;;;7.37;5.90;;;23.10;48.60;;;;;;4954744;29;20605;-60
2021/09/15 06:59:10;;;;;;;6.80;6.20;;;23.20;48.40;;;;;;4953796;28;20650;-60
2021/09/15 07:01:36;;;;;;;5.90;5.40;;;23.20;48.20;;;;;;4954379;28;20469;-61
2021/09/15 07:04:01;;;;;;;5.83;5.37;;;23.10;48.10;;;;;;4954146;29;20217;-60
2021/09/15 07:06:27;;;;;;;6.73;6.23;;;23.20;47.90;;;;;;4954560;29;20183;-60
2021/09/15 07:08:53;;;;;;;6.83;6.13;;;23.20;48.00;;;;;;4954425;28;20203;-61
2021/09/15 07:11:20;;;;;;;6.20;5.70;;;23.20;48.00;;;;;;4954229;28;20433;-60
2021/09/15 07:13:46;;;;;;;6.73;6.13;;;23.20;48.10;;;;;;4954237;28;20183;-60
2021/09/15 07:16:12;;;;;;;6.83;6.23;;;23.20;48.10;;;;;;4954271;28;20425;-60
2021/09/15 07:18:38;;;;;;;7.60;6.00;;;23.20;48.20;;;;;;4954179;29;20845;-61
2021/09/15 07:21:03;;;;;;;6.03;5.43;;;23.20;48.20;;;;;;4954197;29;20217;-60
2021/09/15 07:23:29;;;;;;;6.70;6.10;;;23.10;48.20;;;;;;4954296;28;20183;-62
2021/09/15 07:25:54;;;;;;;6.60;6.00;;;23.10;48.30;;;;;;4954154;29;20269;-61
2021/09/15 07:28:20;;;;;;;8.10;6.20;;;23.10;48.30;;;;;;4954039;29;20582;-61
2021/09/15 07:30:47;;;;;;;6.43;5.90;;;23.10;48.40;;;;;;4953880;29;20179;-62
2021/09/15 07:33:13;;;;;;;6.90;6.40;;;23.10;48.50;;;;;;4954063;28;20785;-61
2021/09/15 07:35:38;;;;;;;6.57;5.97;;;23.10;48.50;;;;;;4954050;29;20434;-60
2021/09/15 07:38:04;;;;;;;6.50;6.00;;;23.10;48.20;;;;;;4953688;29;20418;-61
2021/09/15 07:40:30;;;;;;;6.70;6.20;;;23.10;48.20;;;;;;4954018;28;20187;-60
2021/09/15 07:42:55;;;;;;;7.47;6.10;;;23.20;48.10;;;;;;4953851;29;20587;-60
2021/09/15 07:45:21;;;;;;;6.83;6.17;;;23.20;47.80;;;;;;4953526;29;20463;-57
2021/09/15 07:47:46;;;;;;;6.17;5.77;;;23.20;47.70;;;;;;4953851;29;20693;-59
2021/09/15 07:50:12;;;;;;;6.40;5.90;;;23.20;47.30;;;;;;4953928;29;20214;-59
2021/09/15 07:52:38;;;;;;;6.83;6.03;;;23.20;47.20;;;;;;4953698;29;20203;-59
2021/09/15 07:55:04;;;;;;;7.23;6.27;;;23.20;47.10;;;;;;4953996;29;20466;-60
2021/09/15 07:57:30;;;;;;;6.30;5.80;;;23.20;46.90;;;;;;4954353;29;20193;-59
2021/09/15 07:59:55;;;;;;;6.00;5.50;;;23.30;46.90;;;;;;4953120;28;20435;-61
2021/09/15 08:02:21;;;;;;;6.37;5.27;;;23.30;46.80;;;;;;4953907;28;20199;-59
2021/09/15 08:04:46;;;;;;;5.97;5.47;;;23.30;46.80;;;;;;4953568;29;20203;-58
2021/09/15 08:07:13;;;;;;;5.40;4.90;;;23.30;46.70;;;;;;4953826;29;20682;-58
2021/09/15 08:09:39;;;;;;;5.80;5.07;;;23.30;46.70;;;;;;4954330;28;20234;-58
2021/09/15 08:12:04;;;;;;;6.60;5.30;;;23.30;46.60;;;;;;4959994;29;20848;-59
2021/09/15 08:14:30;;;;;;;7.30;5.20;;;23.30;46.60;;;;;;4959773;28;20566;-59
2021/09/15 08:16:56;;;;;;;5.37;4.80;;;23.30;46.50;;;;;;4960317;28;20409;-60
2021/09/15 08:19:22;;;;;;;6.40;4.63;;;23.30;46.40;;;;;;4959946;28;20552;-60
2021/09/15 08:21:48;;;;;;;5.17;4.77;;;23.30;46.40;;;;;;4959725;28;20195;-57
2021/09/15 08:24:14;;;;;;;5.00;4.60;;;23.30;46.30;;;;;;4959972;28;20470;-60
2021/09/15 08:26:39;;;;;;;5.00;4.30;;;23.30;46.30;;;;;;4959861;29;20182;-58
2021/09/15 08:29:05;;;;;;;5.40;4.90;;;23.30;46.40;;;;;;4959576;29;20190;-60
2021/09/15 08:31:31;;;;;;;5.50;5.03;;;23.30;46.40;;;;;;4959492;28;20600;-61
2021/09/15 08:33:57;;;;;;;5.40;4.90;;;23.30;46.50;;;;;;4959994;28;20179;-58
2021/09/15 08:36:23;;;;;;;5.63;5.13;;;23.30;46.40;;;;;;4959549;29;20226;-58
2021/09/15 08:38:48;;;;;;;4.90;4.33;;;23.20;46.50;;;;;;4959762;29;20411;-58
2021/09/15 08:41:15;;;;;;;5.63;5.23;;;23.20;46.30;;;;;;4959800;29;20273;-59
2021/09/15 08:43:41;;;;;;;6.40;5.07;;;23.30;46.40;;;;;;4959953;28;20179;-59
2021/09/15 08:46:11;;;;;;;4.87;4.33;;;23.30;46.20;;;;;;4959809;28;20442;-60
2021/09/15 08:48:39;;;;;;;5.10;4.60;;;23.30;46.20;;;;;;4959450;28;20410;-59
2021/09/15 08:51:12;;;;;;;5.50;4.80;;;23.30;46.10;;;;;;4959737;28;20430;-58
2021/09/15 08:53:38;;;;;;;4.83;4.50;;;23.30;46.10;;;;;;4959666;28;20410;-59
2021/09/15 08:56:04;;;;;;;7.70;4.93;;;23.30;46.10;;;;;;4959620;28;20415;-59
2021/09/15 08:58:30;;;;;;;5.10;4.60;;;23.30;46.10;;;;;;4959424;28;20477;-57
2021/09/15 09:01:07;;;;;;;5.10;4.60;;;23.30;46.10;;;;;;4959629;28;20222;-60
2021/09/15 09:03:37;;;;;;;5.83;5.33;;;23.30;46.10;;;;;;4959555;28;20402;-58
2021/09/15 09:06:17;;;;;;;5.40;4.90;;;23.30;46.20;;;;;;4959712;28;20882;-60
2021/09/15 09:08:45;;;;;;;5.93;4.80;;;23.30;46.20;;;;;;4959200;28;20953;-56
2021/09/15 09:11:12;;;;;;;5.13;4.47;;;23.30;46.20;;;;;;4959569;28;20434;-60
2021/09/15 09:13:58;;;;;;;5.00;4.40;;;23.30;46.30;;;;;;4959659;28;20445;-58
2021/09/15 09:16:42;;;;;;;4.97;4.57;;;23.30;46.40;;;;;;4959577;28;20409;-57
2021/09/15 09:19:10;;;;;;;7.60;4.60;;;23.30;46.40;;;;;;4959752;28;20422;-59
2021/09/15 09:21:39;;;;;;;6.30;4.97;;;23.30;46.50;;;;;;4957025;28;20478;-57
2021/09/15 09:24:08;;;;;;;5.70;5.20;;;23.30;46.40;;;;;;4956458;28;20457;-56
2021/09/15 09:27:02;;;;;;;5.73;5.10;;;23.30;46.30;;;;;;4956372;28;20494;-56
2021/09/15 09:29:36;;;;;;;5.37;4.97;;;23.30;46.40;;;;;;4956068;28;20403;-56
2021/09/15 09:32:06;;;;;;;5.87;4.77;;;23.30;46.40;;;;;;4956481;28;20781;-58
2021/09/15 09:34:44;;;;;;;4.90;4.50;;;23.20;46.30;;;;;;4956334;29;20442;-61
2021/09/15 09:37:20;;;;;;;6.20;4.90;;;23.30;46.40;;;;;;4956279;28;20437;-56
2021/09/15 09:39:50;;;;;;;5.40;4.90;;;23.30;46.30;;;;;;4955869;28;20837;-55
2021/09/15 09:42:22;;;;;;;5.50;5.00;;;23.30;46.20;;;;;;4956175;28;20439;-56
2021/09/15 09:44:52;;;;;;;4.67;4.37;;;23.30;46.20;;;;;;4955965;29;20945;-57
2021/09/15 09:47:19;;;;;;;5.13;4.60;;;23.30;46.10;;;;;;4955997;28;20415;-59
2021/09/15 09:50:20;;;;;;;5.23;4.73;;;23.30;46.00;;;;;;4955782;28;20493;-58
2021/09/15 09:53:02;;;;;;;5.27;4.77;;;23.30;46.00;;;;;;4953318;28;20938;-57
2021/09/15 09:55:37;;;;;;;5.13;4.47;;;23.30;46.10;;;;;;4955741;28;20450;-53
2021/09/15 09:58:04;;;;;;;4.80;4.40;;;23.30;46.80;;;;;;4955845;28;20449;-60
2021/09/15 10:00:32;;;;;;;4.90;4.50;;;23.30;46.20;;;;;;4955219;28;20863;-59
2021/09/15 10:03:03;;;;;;;5.53;4.67;;;23.30;46.10;;;;;;4955810;28;20815;-61
2021/09/15 10:05:29;;;;;;;6.07;4.77;;;23.30;46.00;;;;;;4955733;28;20461;-57
2021/09/15 10:07:54;;;;;;;6.40;4.17;;;23.30;45.80;;;;;;4955445;29;20427;-60
2021/09/15 10:10:21;;;;;;;4.73;4.33;;;23.30;45.80;;;;;;4955049;29;20172;-59
2021/09/15 10:12:51;;;;;;;4.60;4.17;;;23.30;45.70;;;;;;4955383;29;20231;-56
2021/09/15 10:15:17;;;;;;;4.40;4.10;;;23.30;45.70;;;;;;4955261;28;20423;-59
2021/09/15 10:17:54;;;;;;;5.70;4.40;;;23.30;45.70;;;;;;4955557;28;20465;-59
2021/09/15 10:20:28;;;;;;;4.80;4.40;;;23.30;45.70;;;;;;4954994;28;20834;-59
2021/09/15 10:22:54;;;;;;;5.10;4.47;;;23.30;45.70;;;;;;4955352;28;20442;-60
2021/09/15 10:25:40;;;;;;;4.57;4.17;;;23.30;45.70;;;;;;4955213;28;20462;-59
2021/09/15 10:28:07;;;;;;;4.23;3.90;;;23.30;45.60;;;;;;4955521;28;20411;-58
2021/09/15 10:30:46;;;;;;;4.47;4.17;;;23.30;45.50;;;;;;4954940;28;20482;-58
2021/09/15 10:33:36;;;;;;;7.37;5.43;;;23.30;45.40;;;;;;4954941;28;20411;-57
2021/09/15 10:36:16;;;;;;;4.80;4.40;;;23.30;45.40;;;;;;4954684;28;20494;-59
2021/09/15 10:39:01;;;;;;;5.30;4.07;;;23.30;45.60;;;;;;4954894;29;20410;-59
2021/09/15 10:41:32;;;;;;;4.90;4.50;;;23.30;45.70;;;;;;4955018;28;20466;-59
2021/09/15 10:44:14;;;;;;;5.07;4.57;;;23.30;45.70;;;;;;4954957;29;20473;-57
2021/09/15 10:46:42;;;;;;;5.00;4.60;;;23.30;45.70;;;;;;4954811;29;20399;-59
2021/09/15 10:49:23;;;;;;;4.27;3.97;;;23.30;45.70;;;;;;4954963;28;20431;-58
2021/09/15 10:52:06;;;;;;;4.50;4.20;;;23.30;45.70;;;;;;4954362;29;20963;-59
2021/09/15 10:54:42;;;;;;;4.47;4.17;;;23.30;45.70;;;;;;4955303;29;20783;-58
2021/09/15 10:57:27;;;;;;;4.10;3.70;;;23.30;45.80;;;;;;4954785;29;20489;-59
2021/09/15 11:00:00;;;;;;;4.93;4.43;;;23.30;46.00;;;;;;4954655;29;20423;-59
2021/09/15 11:02:35;;;;;;;4.40;4.10;;;23.30;45.90;;;;;;4954558;28;20446;-58
2021/09/15 11:05:26;;;;;;;4.80;4.33;;;23.30;45.90;;;;;;4954497;29;20462;-57
2021/09/15 11:07:55;;;;;;;4.90;4.23;;;23.30;45.90;;;;;;4946569;28;20429;-59
2021/09/15 11:10:33;;;;;;;4.33;4.03;;;23.30;45.70;;;;;;4954449;28;20411;-59
2021/09/15 11:13:10;;;;;;;5.03;4.63;;;23.30;45.70;;;;;;4954283;28;20430;-59
2021/09/15 11:15:37;;;;;;;6.30;4.50;;;23.30;45.70;;;;;;4954346;28;20478;-59
2021/09/15 11:18:03;;;;;;;6.40;4.60;;;23.30;45.60;;;;;;4954385;29;20415;-58
2021/09/15 11:20:32;;;;;;;4.23;3.83;;;23.40;45.70;;;;;;4954146;28;20435;-58
2021/09/15 11:23:03;;;;;;;3.70;3.50;;;23.40;45.60;;;;;;4954184;29;20431;-58
2021/09/15 11:25:29;;;;;;;4.70;4.40;;;23.40;45.60;;;;;;4954060;28;20478;-59
2021/09/15 11:28:15;;;;;;;5.13;4.47;;;23.40;45.60;;;;;;4953930;29;20453;-59
2021/09/15 11:30:56;;;;;;;4.67;4.27;;;23.40;45.40;;;;;;4953722;29;20426;-59
2021/09/15 11:33:37;;;;;;;4.43;4.03;;;23.40;45.50;;;;;;4954282;29;20691;-58
2021/09/15 11:36:07;;;;;;;4.30;4.00;;;23.40;45.50;;;;;;4953973;29;20415;-58
2021/09/15 11:38:35;;;;;;;4.33;4.03;;;23.40;45.60;;;;;;4953723;28;20482;-58
2021/09/15 11:41:10;;;;;;;4.30;4.00;;;23.40;45.60;;;;;;4953826;28;20952;-57
2021/09/15 11:43:36;;;;;;;4.30;4.00;;;23.40;45.70;;;;;;4953993;29;20419;-57
2021/09/15 11:46:02;;;;;;;4.70;4.40;;;23.40;45.70;;;;;;4953345;28;20739;-57
2021/09/15 11:48:30;;;;;;;4.97;4.57;;;23.40;45.70;;;;;;4953718;29;20410;-58
2021/09/15 11:50:56;;;;;;;6.33;3.47;;;23.40;45.80;;;;;;4953654;28;20430;-58
2021/09/15 11:53:24;;;;;;;4.90;4.50;;;23.40;46.60;;;;;;4953633;29;20427;-59
2021/09/15 11:56:00;;;;;;;4.60;4.23;;;23.40;45.80;;;;;;4953477;28;20454;-60
2021/09/15 11:58:26;;;;;;;6.80;5.27;;;23.40;45.70;;;;;;4953548;28;20973;-57
2021/09/15 12:00:52;;;;;;;4.73;4.33;;;23.40;45.80;;;;;;4953650;29;20533;-55
2021/09/15 12:03:27;;;;;;;4.80;4.30;;;23.40;45.80;;;;;;4953598;28;20574;-59
2021/09/15 12:05:59;;;;;;;5.57;5.13;;;23.40;45.80;;;;;;4953891;28;20215;-60
2021/09/15 12:08:25;;;;;;;5.17;4.77;;;23.40;45.90;;;;;;4952976;29;20492;-57
2021/09/15 12:10:55;;;;;;;5.00;4.50;;;23.40;45.70;;;;;;4953701;28;20423;-57
2021/09/15 12:13:29;;;;;;;5.27;4.77;;;23.40;45.70;;;;;;4953372;29;20426;-59
2021/09/15 12:15:54;;;;;;;5.00;4.60;;;23.40;45.70;;;;;;4953627;29;20458;-57
2021/09/15 12:18:21;;;;;;;4.60;4.30;;;23.40;45.90;;;;;;4953068;29;20522;-60
2021/09/15 12:20:48;;;;;;;5.20;4.80;;;23.40;45.80;;;;;;4953561;29;20191;-58
2021/09/15 12:23:16;;;;;;;4.93;4.43;;;23.40;45.70;;;;;;4953514;29;20482;-58
2021/09/15 12:25:53;;;;;;;4.97;4.53;;;23.40;45.80;;;;;;4952843;29;20473;-59
2021/09/15 12:28:27;;;;;;;5.27;4.77;;;23.40;45.80;;;;;;4953741;29;20410;-60
2021/09/15 12:30:53;;;;;;;5.23;4.70;;;23.40;45.90;;;;;;4953355;28;20461;-57
2021/09/15 12:33:30;;;;;;;4.53;4.23;;;23.40;45.90;;;;;;4953657;29;20446;-57
2021/09/15 12:36:19;;;;;;;5.97;4.60;;;23.40;45.80;;;;;;4953201;28;20418;-58
2021/09/15 12:38:57;;;;;;;5.03;4.63;;;23.40;45.80;;;;;;4953344;29;20423;-59
2021/09/15 12:41:24;;;;;;;5.33;4.70;;;23.40;45.80;;;;;;4953430;28;20450;-56
2021/09/15 12:44:02;;;;;;;5.27;4.47;;;23.40;45.80;;;;;;4953330;29;20510;-57
2021/09/15 12:46:31;;;;;;;5.27;4.87;;;23.40;45.80;;;;;;4953248;29;20411;-59
2021/09/15 12:48:57;;;;;;;5.10;4.63;;;23.40;46.10;;;;;;4953237;29;20738;-59
2021/09/15 12:51:25;;;;;;;4.87;4.50;;;23.40;46.20;;;;;;4952802;29;20952;-57
2021/09/15 12:53:53;;;;;;;5.37;4.93;;;23.40;46.10;;;;;;4953343;29;20422;-57
2021/09/15 12:56:23;;;;;;;4.93;4.53;;;23.40;46.00;;;;;;4953240;28;20434;-59
2021/09/15 12:58:50;;;;;;;5.07;4.67;;;23.40;46.00;;;;;;4956786;28;20855;-58